To NAV CANADA Home Page Login to a new session Search on AWWS site Disclaimer Vers la page française équivalente Tips FAQ What's new on the site To the Forecasts and Observations / NOTAM section To "File a Flight Plan" website Publications and other links Update of the User's profile FIC Telephone Numbers My Weather Data Folder Route Weather Data Regional Weather Data Local Weather Data To the Forecasts and Observations / NOTAM section
Request Generated 06/14/2021 at 19:15:05 UTC . Weather information available at that time is displayed.

METAR/TAF

If you find any discrepancies between the coded METAR/TAF and the plain language METAR/TAF please use the coded METAR/TAF. LWIS bulletins are not decoded in plain language.

CALGARY/YYC CALGARY INTL/AB    

METAR CYYC 141900Z VRB04KT 40SM FEW059TCU 26/11 A2993 RMK TCU1 TCU TR CB TOPS D T W - NNW SLP119 DENSITY ALT 5700FT=
METAR
LOCATION
CYYC - CALGARY/YYC CALGARY INTL/AB
DATE - TIME
14 JUNE 2021 - 1900 UTC
WIND
VRB @ 4  KNOTS
VISIBILITY
40 STAT.  MILES
RUNWAY VISUAL RANGE
WEATHER
CLOUDINESS
FEW CLOUDS (1/8 - 2/8) 5900  FT
TOWERING CUMULUS
TEMP / DEWPOINT
26 C / 11 C
ALTIMETER
29.93 IN HG
RECENT WEATHER
WIND SHEAR

METAR CYYC 141800Z 04004KT 020V090 40SM FEW055CB 25/11 A2993 RMK CB1 CB TR LN 3 B TOPS DIST WSW - NW SLP120 DENSITY ALT 5600FT=
METAR
LOCATION
CYYC - CALGARY/YYC CALGARY INTL/AB
DATE - TIME
14 JUNE 2021 - 1800 UTC
WIND
40 TRUE @ 4  KNOTS
VARIATION
20 <-> 90  DEG
VISIBILITY
40 STAT.  MILES
RUNWAY VISUAL RANGE
WEATHER
CLOUDINESS
FEW CLOUDS (1/8 - 2/8) 5500  FT
CUMULONIMBUS
TEMP / DEWPOINT
25 C / 11 C
ALTIMETER
29.93 IN HG
RECENT WEATHER
WIND SHEAR

METAR CYYC 141700Z 29003KT 280V070 40SM FEW047TCU 22/11 A2994 RMK TCU1 TCU TR T TOPS DIST SW - N SLP127 DENSITY ALT 5300FT=
METAR
LOCATION
CYYC - CALGARY/YYC CALGARY INTL/AB
DATE - TIME
14 JUNE 2021 - 1700 UTC
WIND
290 TRUE @ 3  KNOTS
VARIATION
280 <-> 70  DEG
VISIBILITY
40 STAT.  MILES
RUNWAY VISUAL RANGE
WEATHER
CLOUDINESS
FEW CLOUDS (1/8 - 2/8) 4700  FT
TOWERING CUMULUS
TEMP / DEWPOINT
22 C / 11 C
ALTIMETER
29.94 IN HG
RECENT WEATHER
WIND SHEAR

TAF CYYC 141740Z 1418/1518 VRB03KT P6SM FEW050 BECMG 1418/1420 15010KT FM142300 15012KT P6SM FEW090 BKN250 TEMPO 1423/1504 VRB15G25KT P6SM -SHRA VCTS BKN090CB FM150400 02008KT P6SM SKC FM150900 35005KT P6SM SKC PROB40 1510/1514 3/4SM BR FM151400 35010KT P6SM FEW012 RMK NXT FCST BY 142100Z=
TAF
LOCATION

CYYC - CALGARY/YYC CALGARY INTL/AB
VALIDITY [UTC]
14 JUN - 1740 to
15 JUN - 1800
 
TIMES
[UTC]
WIND
[DEGREES TRUE]
VISIBILITY
[STAT. MILES]
WEATHER
CLOUDINESS
[FEET AGL]
 
14 JUN - 1800 to
14 JUN - 2300
VARIABLE @ 3 KNOTS
6+
NIL
5000 FEW
BECOMING
14 JUN - 1800 to
14 JUN - 2000
150 @ 10 KNOTS
 
 
 
 
14 JUN - 2300 to
15 JUN - 0400
150 @ 12 KNOTS
6+
NIL
9000 FEW
25000 BROKEN
TEMPORARY CHANGES
14 JUN - 2300 to
15 JUN - 0400
VARIABLE @ 15 KNOTS
GUSTS 25 KNOTS
6+
LIGHT RAIN SHOWER
SPRAY IN THE VICINITY
9000 BROKEN WITH CUMULONIMBUS
 
15 JUN - 0400 to
15 JUN - 0900
20 @ 8 KNOTS
6+
NIL
CLEAR SKY
 
15 JUN - 0900 to
15 JUN - 1400
350 @ 5 KNOTS
6+
NIL
CLEAR SKY
40% PROBABILITY
15 JUN - 1000 to
15 JUN - 1400
 
3/4
MIST
 
 
15 JUN - 1400 to
15 JUN - 1800
350 @ 10 KNOTS
6+
NIL
1200 FEW
REMARKS
THE NEXT FORECAST WILL BE ISSUED BY 2100 UTC ON DAY 14


Your time UTC time
Weather data provided by Environment Canada and NAV CANADA